sensor_id;sensor_type;location;lat;lon;timestamp;P1;durP1;ratioP1;P2;durP2;ratioP2
60076;SDS011;45950;45.208;20.374;2022-07-06T00:00:22;6.13;;;4.10;;
60076;SDS011;45950;45.208;20.374;2022-07-06T00:02:49;6.18;;;4.07;;
60076;SDS011;45950;45.208;20.374;2022-07-06T00:05:16;6.72;;;4.10;;
60076;SDS011;45950;45.208;20.374;2022-07-06T00:07:42;6.63;;;3.88;;
60076;SDS011;45950;45.208;20.374;2022-07-06T00:10:09;5.72;;;4.10;;
60076;SDS011;45950;45.208;20.374;2022-07-06T00:12:36;6.30;;;3.60;;
60076;SDS011;45950;45.208;20.374;2022-07-06T00:15:03;5.63;;;3.67;;
60076;SDS011;45950;45.208;20.374;2022-07-06T00:17:31;7.05;;;4.53;;
60076;SDS011;45950;45.208;20.374;2022-07-06T00:19:58;5.05;;;4.10;;
60076;SDS011;45950;45.208;20.374;2022-07-06T00:22:25;5.45;;;3.25;;
60076;SDS011;45950;45.208;20.374;2022-07-06T00:24:52;4.05;;;3.47;;
60076;SDS011;45950;45.208;20.374;2022-07-06T00:27:18;7.47;;;4.28;;
60076;SDS011;45950;45.208;20.374;2022-07-06T00:29:45;5.60;;;3.58;;
60076;SDS011;45950;45.208;20.374;2022-07-06T00:32:12;6.32;;;4.57;;
60076;SDS011;45950;45.208;20.374;2022-07-06T00:34:40;4.40;;;3.63;;
60076;SDS011;45950;45.208;20.374;2022-07-06T00:37:07;7.47;;;4.97;;
60076;SDS011;45950;45.208;20.374;2022-07-06T00:39:33;6.25;;;4.15;;
60076;SDS011;45950;45.208;20.374;2022-07-06T00:42:00;6.72;;;4.78;;
60076;SDS011;45950;45.208;20.374;2022-07-06T00:44:27;8.23;;;4.30;;
60076;SDS011;45950;45.208;20.374;2022-07-06T00:46:54;7.55;;;3.72;;
60076;SDS011;45950;45.208;20.374;2022-07-06T00:49:20;6.72;;;4.40;;
60076;SDS011;45950;45.208;20.374;2022-07-06T00:52:11;6.88;;;4.80;;
60076;SDS011;45950;45.208;20.374;2022-07-06T00:54:38;6.07;;;4.47;;
60076;SDS011;45950;45.208;20.374;2022-07-06T00:57:06;5.30;;;4.72;;
60076;SDS011;45950;45.208;20.374;2022-07-06T00:59:32;4.75;;;4.10;;
60076;SDS011;45950;45.208;20.374;2022-07-06T01:01:59;6.13;;;4.70;;
60076;SDS011;45950;45.208;20.374;2022-07-06T01:04:26;5.50;;;4.72;;
60076;SDS011;45950;45.208;20.374;2022-07-06T01:06:53;6.15;;;4.05;;
60076;SDS011;45950;45.208;20.374;2022-07-06T01:09:21;6.70;;;4.30;;
60076;SDS011;45950;45.208;20.374;2022-07-06T01:11:48;5.50;;;4.22;;
60076;SDS011;45950;45.208;20.374;2022-07-06T01:14:15;8.05;;;4.80;;
60076;SDS011;45950;45.208;20.374;2022-07-06T01:16:42;6.20;;;4.90;;
60076;SDS011;45950;45.208;20.374;2022-07-06T01:19:09;6.15;;;4.32;;
60076;SDS011;45950;45.208;20.374;2022-07-06T01:21:38;10.95;;;4.45;;
60076;SDS011;45950;45.208;20.374;2022-07-06T01:24:05;6.28;;;4.38;;
60076;SDS011;45950;45.208;20.374;2022-07-06T01:26:32;5.43;;;4.25;;
60076;SDS011;45950;45.208;20.374;2022-07-06T01:28:59;5.97;;;4.50;;
60076;SDS011;45950;45.208;20.374;2022-07-06T01:31:26;4.68;;;3.92;;
60076;SDS011;45950;45.208;20.374;2022-07-06T01:33:54;4.57;;;3.88;;
60076;SDS011;45950;45.208;20.374;2022-07-06T01:36:21;5.22;;;4.57;;
60076;SDS011;45950;45.208;20.374;2022-07-06T01:38:50;5.28;;;4.28;;
60076;SDS011;45950;45.208;20.374;2022-07-06T01:41:16;6.50;;;3.95;;
60076;SDS011;45950;45.208;20.374;2022-07-06T01:43:43;4.55;;;3.95;;
60076;SDS011;45950;45.208;20.374;2022-07-06T01:46:10;7.68;;;4.10;;
60076;SDS011;45950;45.208;20.374;2022-07-06T01:48:37;5.03;;;4.18;;
60076;SDS011;45950;45.208;20.374;2022-07-06T01:51:04;4.95;;;3.92;;
60076;SDS011;45950;45.208;20.374;2022-07-06T01:53:31;5.63;;;4.03;;
60076;SDS011;45950;45.208;20.374;2022-07-06T01:55:59;4.60;;;3.40;;
60076;SDS011;45950;45.208;20.374;2022-07-06T01:58:26;5.45;;;3.97;;
60076;SDS011;45950;45.208;20.374;2022-07-06T02:00:52;4.93;;;3.50;;
60076;SDS011;45950;45.208;20.374;2022-07-06T02:03:19;7.90;;;4.43;;
60076;SDS011;45950;45.208;20.374;2022-07-06T02:05:46;5.95;;;3.83;;
60076;SDS011;45950;45.208;20.374;2022-07-06T02:08:13;7.32;;;5.80;;
60076;SDS011;45950;45.208;20.374;2022-07-06T02:10:40;6.88;;;5.40;;
60076;SDS011;45950;45.208;20.374;2022-07-06T02:13:08;5.75;;;4.80;;
60076;SDS011;45950;45.208;20.374;2022-07-06T02:15:35;5.22;;;4.40;;
60076;SDS011;45950;45.208;20.374;2022-07-06T02:18:01;5.80;;;4.75;;
60076;SDS011;45950;45.208;20.374;2022-07-06T02:20:28;8.23;;;5.70;;
60076;SDS011;45950;45.208;20.374;2022-07-06T02:22:55;5.43;;;4.63;;
60076;SDS011;45950;45.208;20.374;2022-07-06T02:25:22;5.32;;;4.78;;
60076;SDS011;45950;45.208;20.374;2022-07-06T02:27:49;6.72;;;4.82;;
60076;SDS011;45950;45.208;20.374;2022-07-06T02:30:17;5.00;;;4.32;;
60076;SDS011;45950;45.208;20.374;2022-07-06T02:32:44;5.18;;;4.68;;
60076;SDS011;45950;45.208;20.374;2022-07-06T02:35:10;5.68;;;5.07;;
60076;SDS011;45950;45.208;20.374;2022-07-06T02:37:37;7.53;;;4.93;;
60076;SDS011;45950;45.208;20.374;2022-07-06T02:40:04;5.45;;;4.00;;
60076;SDS011;45950;45.208;20.374;2022-07-06T02:42:31;6.20;;;4.60;;
60076;SDS011;45950;45.208;20.374;2022-07-06T02:44:58;6.15;;;4.90;;
60076;SDS011;45950;45.208;20.374;2022-07-06T02:47:26;5.85;;;4.97;;
60076;SDS011;45950;45.208;20.374;2022-07-06T02:49:53;7.07;;;5.55;;
60076;SDS011;45950;45.208;20.374;2022-07-06T02:52:20;6.95;;;5.38;;
60076;SDS011;45950;45.208;20.374;2022-07-06T02:54:47;6.72;;;5.72;;
60076;SDS011;45950;45.208;20.374;2022-07-06T02:57:15;6.57;;;4.28;;
60076;SDS011;45950;45.208;20.374;2022-07-06T02:59:42;6.38;;;4.65;;
60076;SDS011;45950;45.208;20.374;2022-07-06T03:02:09;5.38;;;4.80;;
60076;SDS011;45950;45.208;20.374;2022-07-06T03:04:37;6.38;;;5.68;;
60076;SDS011;45950;45.208;20.374;2022-07-06T03:07:04;6.03;;;5.05;;
60076;SDS011;45950;45.208;20.374;2022-07-06T03:09:31;5.57;;;5.00;;
60076;SDS011;45950;45.208;20.374;2022-07-06T03:11:58;6.95;;;5.07;;
60076;SDS011;45950;45.208;20.374;2022-07-06T03:14:25;7.03;;;5.50;;
60076;SDS011;45950;45.208;20.374;2022-07-06T03:16:52;7.03;;;5.32;;
60076;SDS011;45950;45.208;20.374;2022-07-06T03:19:18;5.97;;;4.47;;
60076;SDS011;45950;45.208;20.374;2022-07-06T03:21:47;5.90;;;4.90;;
60076;SDS011;45950;45.208;20.374;2022-07-06T03:24:15;6.32;;;5.38;;
60076;SDS011;45950;45.208;20.374;2022-07-06T03:26:41;8.13;;;5.22;;
60076;SDS011;45950;45.208;20.374;2022-07-06T03:29:08;5.82;;;5.32;;
60076;SDS011;45950;45.208;20.374;2022-07-06T03:31:35;5.80;;;5.20;;
60076;SDS011;45950;45.208;20.374;2022-07-06T03:34:02;7.60;;;6.40;;
60076;SDS011;45950;45.208;20.374;2022-07-06T03:36:28;7.10;;;5.32;;
60076;SDS011;45950;45.208;20.374;2022-07-06T03:38:57;7.35;;;6.60;;
60076;SDS011;45950;45.208;20.374;2022-07-06T03:41:23;7.47;;;5.60;;
60076;SDS011;45950;45.208;20.374;2022-07-06T03:43:50;7.85;;;5.35;;
60076;SDS011;45950;45.208;20.374;2022-07-06T03:46:17;7.88;;;6.57;;
60076;SDS011;45950;45.208;20.374;2022-07-06T03:48:44;6.88;;;6.18;;
60076;SDS011;45950;45.208;20.374;2022-07-06T03:51:10;6.38;;;5.72;;
60076;SDS011;45950;45.208;20.374;2022-07-06T03:53:37;8.65;;;6.22;;
60076;SDS011;45950;45.208;20.374;2022-07-06T03:56:06;8.88;;;7.38;;
60076;SDS011;45950;45.208;20.374;2022-07-06T03:58:50;7.13;;;6.18;;
60076;SDS011;45950;45.208;20.374;2022-07-06T04:01:17;5.45;;;4.95;;
60076;SDS011;45950;45.208;20.374;2022-07-06T04:03:43;8.35;;;7.00;;
60076;SDS011;45950;45.208;20.374;2022-07-06T04:06:10;7.68;;;6.30;;
60076;SDS011;45950;45.208;20.374;2022-07-06T04:08:37;7.07;;;6.38;;
60076;SDS011;45950;45.208;20.374;2022-07-06T04:11:05;7.60;;;6.80;;
60076;SDS011;45950;45.208;20.374;2022-07-06T04:13:32;8.88;;;6.65;;
60076;SDS011;45950;45.208;20.374;2022-07-06T04:15:59;9.10;;;7.60;;
60076;SDS011;45950;45.208;20.374;2022-07-06T04:18:26;8.95;;;7.22;;
60076;SDS011;45950;45.208;20.374;2022-07-06T04:20:53;7.15;;;6.35;;
60076;SDS011;45950;45.208;20.374;2022-07-06T04:23:20;8.45;;;7.18;;
60076;SDS011;45950;45.208;20.374;2022-07-06T04:25:46;7.82;;;6.95;;
60076;SDS011;45950;45.208;20.374;2022-07-06T04:28:15;8.23;;;7.38;;
60076;SDS011;45950;45.208;20.374;2022-07-06T04:30:41;9.75;;;7.85;;
60076;SDS011;45950;45.208;20.374;2022-07-06T04:33:08;8.32;;;7.45;;
60076;SDS011;45950;45.208;20.374;2022-07-06T04:35:35;7.15;;;5.93;;
60076;SDS011;45950;45.208;20.374;2022-07-06T04:38:02;6.90;;;5.78;;
60076;SDS011;45950;45.208;20.374;2022-07-06T04:40:30;7.55;;;6.75;;
60076;SDS011;45950;45.208;20.374;2022-07-06T04:42:57;7.57;;;6.55;;
60076;SDS011;45950;45.208;20.374;2022-07-06T04:45:26;8.88;;;7.45;;
60076;SDS011;45950;45.208;20.374;2022-07-06T04:47:53;8.77;;;6.60;;
60076;SDS011;45950;45.208;20.374;2022-07-06T04:50:19;5.60;;;5.10;;
60076;SDS011;45950;45.208;20.374;2022-07-06T04:52:46;6.95;;;6.25;;
60076;SDS011;45950;45.208;20.374;2022-07-06T04:55:13;7.03;;;6.32;;
60076;SDS011;45950;45.208;20.374;2022-07-06T04:57:40;7.30;;;6.60;;
60076;SDS011;45950;45.208;20.374;2022-07-06T05:00:07;9.02;;;7.72;;
60076;SDS011;45950;45.208;20.374;2022-07-06T05:02:35;8.43;;;6.68;;
60076;SDS011;45950;45.208;20.374;2022-07-06T05:05:02;8.05;;;7.25;;
60076;SDS011;45950;45.208;20.374;2022-07-06T05:07:29;6.97;;;6.10;;
60076;SDS011;45950;45.208;20.374;2022-07-06T05:09:57;7.45;;;6.75;;
60076;SDS011;45950;45.208;20.374;2022-07-06T05:12:24;8.10;;;6.32;;
60076;SDS011;45950;45.208;20.374;2022-07-06T05:14:50;7.68;;;5.95;;
60076;SDS011;45950;45.208;20.374;2022-07-06T05:17:17;6.93;;;6.22;;
60076;SDS011;45950;45.208;20.374;2022-07-06T05:19:45;6.13;;;5.53;;
60076;SDS011;45950;45.208;20.374;2022-07-06T05:22:12;7.88;;;6.07;;
60076;SDS011;45950;45.208;20.374;2022-07-06T05:24:39;6.85;;;5.93;;
60076;SDS011;45950;45.208;20.374;2022-07-06T05:27:06;7.07;;;6.38;;
60076;SDS011;45950;45.208;20.374;2022-07-06T05:29:32;6.60;;;5.78;;
60076;SDS011;45950;45.208;20.374;2022-07-06T05:31:59;5.57;;;5.05;;
60076;SDS011;45950;45.208;20.374;2022-07-06T05:34:26;6.25;;;5.65;;
60076;SDS011;45950;45.208;20.374;2022-07-06T05:36:54;6.45;;;5.75;;
60076;SDS011;45950;45.208;20.374;2022-07-06T05:39:21;6.13;;;4.80;;
60076;SDS011;45950;45.208;20.374;2022-07-06T05:41:48;5.63;;;4.90;;
60076;SDS011;45950;45.208;20.374;2022-07-06T05:44:15;5.50;;;4.65;;
60076;SDS011;45950;45.208;20.374;2022-07-06T05:46:42;5.22;;;4.72;;
60076;SDS011;45950;45.208;20.374;2022-07-06T05:49:08;6.00;;;5.38;;
60076;SDS011;45950;45.208;20.374;2022-07-06T05:51:54;5.35;;;4.60;;
60076;SDS011;45950;45.208;20.374;2022-07-06T05:54:21;5.38;;;4.88;;
60076;SDS011;45950;45.208;20.374;2022-07-06T05:56:48;6.50;;;5.53;;
60076;SDS011;45950;45.208;20.374;2022-07-06T05:59:14;5.88;;;5.25;;
60076;SDS011;45950;45.208;20.374;2022-07-06T06:01:41;5.22;;;4.72;;
60076;SDS011;45950;45.208;20.374;2022-07-06T06:04:08;5.18;;;4.45;;
60076;SDS011;45950;45.208;20.374;2022-07-06T06:06:34;4.72;;;4.22;;
60076;SDS011;45950;45.208;20.374;2022-07-06T06:09:03;5.45;;;4.35;;
60076;SDS011;45950;45.208;20.374;2022-07-06T06:11:29;4.72;;;3.88;;
60076;SDS011;45950;45.208;20.374;2022-07-06T06:13:56;4.95;;;4.45;;
60076;SDS011;45950;45.208;20.374;2022-07-06T06:16:23;5.55;;;4.72;;
60076;SDS011;45950;45.208;20.374;2022-07-06T06:18:49;5.03;;;4.53;;
60076;SDS011;45950;45.208;20.374;2022-07-06T06:21:16;5.93;;;4.55;;
60076;SDS011;45950;45.208;20.374;2022-07-06T06:23:43;6.72;;;4.50;;
60076;SDS011;45950;45.208;20.374;2022-07-06T06:26:11;5.13;;;4.63;;
60076;SDS011;45950;45.208;20.374;2022-07-06T06:28:37;5.40;;;4.60;;
60076;SDS011;45950;45.208;20.374;2022-07-06T06:31:06;5.07;;;3.95;;
60076;SDS011;45950;45.208;20.374;2022-07-06T06:33:33;6.43;;;5.05;;
60076;SDS011;45950;45.208;20.374;2022-07-06T06:36:00;6.25;;;4.22;;
60076;SDS011;45950;45.208;20.374;2022-07-06T06:38:26;5.88;;;4.22;;
60076;SDS011;45950;45.208;20.374;2022-07-06T06:40:54;5.22;;;4.45;;
60076;SDS011;45950;45.208;20.374;2022-07-06T06:43:22;6.18;;;4.03;;
60076;SDS011;45950;45.208;20.374;2022-07-06T06:45:49;5.25;;;4.10;;
60076;SDS011;45950;45.208;20.374;2022-07-06T06:48:16;6.05;;;4.38;;
60076;SDS011;45950;45.208;20.374;2022-07-06T06:50:44;7.78;;;4.30;;
60076;SDS011;45950;45.208;20.374;2022-07-06T06:53:10;7.38;;;4.70;;
60076;SDS011;45950;45.208;20.374;2022-07-06T06:55:37;5.05;;;4.53;;
60076;SDS011;45950;45.208;20.374;2022-07-06T06:58:04;5.07;;;4.57;;
60076;SDS011;45950;45.208;20.374;2022-07-06T07:08:27;5.88;;;4.43;;
60076;SDS011;45950;45.208;20.374;2022-07-06T07:10:54;7.18;;;4.25;;
60076;SDS011;45950;45.208;20.374;2022-07-06T07:13:21;5.38;;;4.70;;
60076;SDS011;45950;45.208;20.374;2022-07-06T07:15:47;4.70;;;4.25;;
60076;SDS011;45950;45.208;20.374;2022-07-06T07:18:14;6.10;;;4.72;;
60076;SDS011;45950;45.208;20.374;2022-07-06T07:20:41;4.45;;;4.05;;
60076;SDS011;45950;45.208;20.374;2022-07-06T07:23:07;6.15;;;3.97;;
60076;SDS011;45950;45.208;20.374;2022-07-06T07:25:35;6.10;;;4.05;;
60076;SDS011;45950;45.208;20.374;2022-07-06T07:28:04;4.82;;;4.32;;
60076;SDS011;45950;45.208;20.374;2022-07-06T07:30:30;6.95;;;4.10;;
60076;SDS011;45950;45.208;20.374;2022-07-06T07:32:57;5.15;;;3.60;;
60076;SDS011;45950;45.208;20.374;2022-07-06T07:35:26;4.25;;;3.60;;
60076;SDS011;45950;45.208;20.374;2022-07-06T07:37:52;4.70;;;3.95;;
60076;SDS011;45950;45.208;20.374;2022-07-06T07:40:19;4.25;;;3.85;;
60076;SDS011;45950;45.208;20.374;2022-07-06T07:42:48;6.95;;;4.10;;
60076;SDS011;45950;45.208;20.374;2022-07-06T07:45:15;4.60;;;3.63;;
60076;SDS011;45950;45.208;20.374;2022-07-06T07:47:42;5.60;;;4.10;;
60076;SDS011;45950;45.208;20.374;2022-07-06T07:50:09;4.07;;;3.70;;
60076;SDS011;45950;45.208;20.374;2022-07-06T07:52:36;4.88;;;3.90;;
60076;SDS011;45950;45.208;20.374;2022-07-06T07:55:03;5.78;;;3.95;;
60076;SDS011;45950;45.208;20.374;2022-07-06T07:57:29;5.78;;;3.63;;
60076;SDS011;45950;45.208;20.374;2022-07-06T07:59:57;4.07;;;3.50;;
60076;SDS011;45950;45.208;20.374;2022-07-06T08:02:24;4.00;;;3.50;;
60076;SDS011;45950;45.208;20.374;2022-07-06T08:04:51;6.30;;;3.47;;
60076;SDS011;45950;45.208;20.374;2022-07-06T08:07:17;4.40;;;3.22;;
60076;SDS011;45950;45.208;20.374;2022-07-06T08:09:44;3.92;;;2.90;;
60076;SDS011;45950;45.208;20.374;2022-07-06T08:12:11;4.40;;;3.25;;
60076;SDS011;45950;45.208;20.374;2022-07-06T08:14:37;3.42;;;2.90;;
60076;SDS011;45950;45.208;20.374;2022-07-06T08:17:05;5.03;;;2.90;;
60076;SDS011;45950;45.208;20.374;2022-07-06T08:19:32;6.63;;;3.53;;
60076;SDS011;45950;45.208;20.374;2022-07-06T08:21:59;3.00;;;2.70;;
60076;SDS011;45950;45.208;20.374;2022-07-06T08:24:25;4.47;;;2.97;;
60076;SDS011;45950;45.208;20.374;2022-07-06T08:26:52;7.18;;;2.85;;
60076;SDS011;45950;45.208;20.374;2022-07-06T08:29:19;3.50;;;2.65;;
60076;SDS011;45950;45.208;20.374;2022-07-06T08:31:45;5.40;;;2.47;;
60076;SDS011;45950;45.208;20.374;2022-07-06T08:34:13;3.28;;;2.50;;
60076;SDS011;45950;45.208;20.374;2022-07-06T08:36:40;5.55;;;2.70;;
60076;SDS011;45950;45.208;20.374;2022-07-06T08:39:07;4.38;;;2.88;;
60076;SDS011;45950;45.208;20.374;2022-07-06T08:41:34;5.13;;;2.80;;
60076;SDS011;45950;45.208;20.374;2022-07-06T08:44:01;2.88;;;2.60;;
60076;SDS011;45950;45.208;20.374;2022-07-06T08:46:28;4.70;;;2.75;;
60076;SDS011;45950;45.208;20.374;2022-07-06T08:48:55;4.20;;;2.85;;
60076;SDS011;45950;45.208;20.374;2022-07-06T08:51:23;2.90;;;2.10;;
60076;SDS011;45950;45.208;20.374;2022-07-06T08:53:50;4.47;;;2.53;;
60076;SDS011;45950;45.208;20.374;2022-07-06T08:56:17;3.00;;;2.50;;
60076;SDS011;45950;45.208;20.374;2022-07-06T08:58:44;3.55;;;2.40;;
60076;SDS011;45950;45.208;20.374;2022-07-06T09:01:11;3.67;;;2.33;;
60076;SDS011;45950;45.208;20.374;2022-07-06T09:03:38;3.03;;;2.38;;
60076;SDS011;45950;45.208;20.374;2022-07-06T09:06:05;3.45;;;2.75;;
60076;SDS011;45950;45.208;20.374;2022-07-06T09:08:34;3.97;;;2.78;;
60076;SDS011;45950;45.208;20.374;2022-07-06T09:11:01;3.72;;;2.78;;
60076;SDS011;45950;45.208;20.374;2022-07-06T09:13:28;3.10;;;2.50;;
60076;SDS011;45950;45.208;20.374;2022-07-06T09:15:55;4.55;;;2.65;;
60076;SDS011;45950;45.208;20.374;2022-07-06T09:18:21;6.32;;;2.80;;
60076;SDS011;45950;45.208;20.374;2022-07-06T09:20:48;3.03;;;2.40;;
60076;SDS011;45950;45.208;20.374;2022-07-06T09:23:15;3.70;;;2.22;;
60076;SDS011;45950;45.208;20.374;2022-07-06T09:25:43;2.38;;;2.10;;
60076;SDS011;45950;45.208;20.374;2022-07-06T09:28:13;3.78;;;1.85;;
60076;SDS011;45950;45.208;20.374;2022-07-06T09:30:40;3.15;;;2.70;;
60076;SDS011;45950;45.208;20.374;2022-07-06T09:33:07;2.88;;;2.35;;
60076;SDS011;45950;45.208;20.374;2022-07-06T09:35:36;3.70;;;2.30;;
60076;SDS011;45950;45.208;20.374;2022-07-06T09:38:03;4.72;;;2.22;;
60076;SDS011;45950;45.208;20.374;2022-07-06T09:40:30;3.03;;;2.30;;
60076;SDS011;45950;45.208;20.374;2022-07-06T09:43:08;4.75;;;2.33;;
60076;SDS011;45950;45.208;20.374;2022-07-06T09:45:35;5.07;;;2.47;;
60076;SDS011;45950;45.208;20.374;2022-07-06T09:48:05;2.53;;;2.17;;
60076;SDS011;45950;45.208;20.374;2022-07-06T09:50:37;2.67;;;2.30;;
60076;SDS011;45950;45.208;20.374;2022-07-06T09:53:05;9.95;;;3.47;;
60076;SDS011;45950;45.208;20.374;2022-07-06T09:55:32;4.40;;;2.42;;
60076;SDS011;45950;45.208;20.374;2022-07-06T09:57:58;3.22;;;2.17;;
60076;SDS011;45950;45.208;20.374;2022-07-06T10:00:26;2.40;;;1.88;;
60076;SDS011;45950;45.208;20.374;2022-07-06T10:02:54;3.70;;;1.98;;
60076;SDS011;45950;45.208;20.374;2022-07-06T10:05:21;2.10;;;1.90;;
60076;SDS011;45950;45.208;20.374;2022-07-06T10:07:52;4.35;;;2.40;;
60076;SDS011;45950;45.208;20.374;2022-07-06T10:10:22;4.47;;;1.77;;
60076;SDS011;45950;45.208;20.374;2022-07-06T10:12:49;3.38;;;2.00;;
60076;SDS011;45950;45.208;20.374;2022-07-06T10:15:16;3.35;;;2.03;;
60076;SDS011;45950;45.208;20.374;2022-07-06T10:17:46;2.20;;;1.80;;
60076;SDS011;45950;45.208;20.374;2022-07-06T10:20:13;3.47;;;1.42;;
60076;SDS011;45950;45.208;20.374;2022-07-06T10:22:40;2.42;;;1.90;;
60076;SDS011;45950;45.208;20.374;2022-07-06T10:25:07;2.60;;;1.85;;
60076;SDS011;45950;45.208;20.374;2022-07-06T10:27:34;1.98;;;1.77;;
60076;SDS011;45950;45.208;20.374;2022-07-06T10:30:01;2.30;;;1.60;;
60076;SDS011;45950;45.208;20.374;2022-07-06T10:32:28;4.97;;;1.83;;
60076;SDS011;45950;45.208;20.374;2022-07-06T10:34:56;3.50;;;2.00;;
60076;SDS011;45950;45.208;20.374;2022-07-06T10:37:23;3.17;;;2.10;;
60076;SDS011;45950;45.208;20.374;2022-07-06T10:39:51;4.50;;;2.53;;
60076;SDS011;45950;45.208;20.374;2022-07-06T10:42:38;4.07;;;1.98;;
60076;SDS011;45950;45.208;20.374;2022-07-06T10:45:05;3.05;;;2.00;;
60076;SDS011;45950;45.208;20.374;2022-07-06T10:47:32;4.05;;;2.03;;
60076;SDS011;45950;45.208;20.374;2022-07-06T10:50:00;4.25;;;2.28;;
60076;SDS011;45950;45.208;20.374;2022-07-06T10:55:08;3.42;;;2.08;;
60076;SDS011;45950;45.208;20.374;2022-07-06T10:57:51;3.83;;;2.33;;
60076;SDS011;45950;45.208;20.374;2022-07-06T11:00:18;4.15;;;3.17;;
60076;SDS011;45950;45.208;20.374;2022-07-06T11:02:44;3.53;;;2.10;;
60076;SDS011;45950;45.208;20.374;2022-07-06T11:05:13;4.80;;;2.35;;
60076;SDS011;45950;45.208;20.374;2022-07-06T11:08:00;3.88;;;1.85;;
60076;SDS011;45950;45.208;20.374;2022-07-06T11:10:27;4.03;;;2.30;;
60076;SDS011;45950;45.208;20.374;2022-07-06T11:12:58;2.92;;;2.30;;
60076;SDS011;45950;45.208;20.374;2022-07-06T11:18:12;2.92;;;1.73;;
60076;SDS011;45950;45.208;20.374;2022-07-06T11:20:40;4.60;;;2.40;;
60076;SDS011;45950;45.208;20.374;2022-07-06T11:23:07;3.67;;;2.50;;
60076;SDS011;45950;45.208;20.374;2022-07-06T11:25:34;3.42;;;2.20;;
60076;SDS011;45950;45.208;20.374;2022-07-06T11:28:01;2.65;;;2.10;;
60076;SDS011;45950;45.208;20.374;2022-07-06T11:30:27;3.60;;;2.40;;
60076;SDS011;45950;45.208;20.374;2022-07-06T11:32:54;2.58;;;2.17;;
60076;SDS011;45950;45.208;20.374;2022-07-06T11:35:21;3.00;;;2.70;;
60076;SDS011;45950;45.208;20.374;2022-07-06T11:37:49;2.75;;;2.17;;
60076;SDS011;45950;45.208;20.374;2022-07-06T11:40:17;2.60;;;2.10;;
60076;SDS011;45950;45.208;20.374;2022-07-06T11:42:52;5.45;;;2.20;;
60076;SDS011;45950;45.208;20.374;2022-07-06T11:45:25;3.58;;;2.25;;
60076;SDS011;45950;45.208;20.374;2022-07-06T11:48:08;15.77;;;3.33;;
60076;SDS011;45950;45.208;20.374;2022-07-06T11:50:35;2.90;;;2.22;;
60076;SDS011;45950;45.208;20.374;2022-07-06T11:53:03;4.05;;;2.30;;
60076;SDS011;45950;45.208;20.374;2022-07-06T11:55:30;5.00;;;2.60;;
60076;SDS011;45950;45.208;20.374;2022-07-06T11:57:57;5.03;;;2.15;;
60076;SDS011;45950;45.208;20.374;2022-07-06T12:00:24;2.70;;;2.05;;
60076;SDS011;45950;45.208;20.374;2022-07-06T12:02:58;4.50;;;2.00;;
60076;SDS011;45950;45.208;20.374;2022-07-06T12:05:31;2.70;;;2.35;;
60076;SDS011;45950;45.208;20.374;2022-07-06T12:08:05;4.90;;;2.65;;
60076;SDS011;45950;45.208;20.374;2022-07-06T12:10:33;2.95;;;1.65;;
60076;SDS011;45950;45.208;20.374;2022-07-06T12:13:03;2.30;;;2.08;;
60076;SDS011;45950;45.208;20.374;2022-07-06T12:15:29;3.65;;;2.20;;
60076;SDS011;45950;45.208;20.374;2022-07-06T12:17:56;2.67;;;2.17;;
60076;SDS011;45950;45.208;20.374;2022-07-06T12:20:23;2.20;;;1.90;;
60076;SDS011;45950;45.208;20.374;2022-07-06T12:23:00;2.50;;;2.05;;
60076;SDS011;45950;45.208;20.374;2022-07-06T12:25:31;2.75;;;1.90;;
60076;SDS011;45950;45.208;20.374;2022-07-06T12:27:58;3.28;;;2.00;;
60076;SDS011;45950;45.208;20.374;2022-07-06T12:30:24;4.97;;;2.30;;
60076;SDS011;45950;45.208;20.374;2022-07-06T12:35:35;4.22;;;1.80;;
60076;SDS011;45950;45.208;20.374;2022-07-06T12:38:02;2.22;;;2.00;;
60076;SDS011;45950;45.208;20.374;2022-07-06T12:40:30;3.72;;;2.47;;
60076;SDS011;45950;45.208;20.374;2022-07-06T12:42:57;5.10;;;2.40;;
60076;SDS011;45950;45.208;20.374;2022-07-06T12:45:25;3.20;;;2.03;;
60076;SDS011;45950;45.208;20.374;2022-07-06T12:47:59;2.35;;;1.77;;
60076;SDS011;45950;45.208;20.374;2022-07-06T12:52:52;4.30;;;2.00;;
60076;SDS011;45950;45.208;20.374;2022-07-06T12:55:19;5.68;;;2.05;;
60076;SDS011;45950;45.208;20.374;2022-07-06T12:57:53;5.05;;;2.15;;
60076;SDS011;45950;45.208;20.374;2022-07-06T13:00:19;4.93;;;2.22;;
60076;SDS011;45950;45.208;20.374;2022-07-06T13:02:47;4.68;;;2.55;;
60076;SDS011;45950;45.208;20.374;2022-07-06T13:05:21;4.13;;;2.45;;
60076;SDS011;45950;45.208;20.374;2022-07-06T13:10:19;4.15;;;2.55;;
60076;SDS011;45950;45.208;20.374;2022-07-06T13:12:46;3.55;;;2.55;;
60076;SDS011;45950;45.208;20.374;2022-07-06T13:15:14;3.58;;;2.60;;
60076;SDS011;45950;45.208;20.374;2022-07-06T13:17:40;3.35;;;2.78;;
60076;SDS011;45950;45.208;20.374;2022-07-06T13:20:09;3.28;;;2.97;;
60076;SDS011;45950;45.208;20.374;2022-07-06T13:22:36;2.92;;;2.63;;
60076;SDS011;45950;45.208;20.374;2022-07-06T13:25:04;5.13;;;3.15;;
60076;SDS011;45950;45.208;20.374;2022-07-06T13:27:31;3.10;;;2.72;;
60076;SDS011;45950;45.208;20.374;2022-07-06T13:29:57;8.23;;;3.22;;
60076;SDS011;45950;45.208;20.374;2022-07-06T13:32:25;3.17;;;2.88;;
60076;SDS011;45950;45.208;20.374;2022-07-06T13:34:52;4.30;;;3.08;;
60076;SDS011;45950;45.208;20.374;2022-07-06T13:37:19;6.05;;;3.15;;
60076;SDS011;45950;45.208;20.374;2022-07-06T13:39:46;4.28;;;3.08;;
60076;SDS011;45950;45.208;20.374;2022-07-06T13:42:13;4.63;;;2.83;;
60076;SDS011;45950;45.208;20.374;2022-07-06T13:44:39;4.20;;;3.08;;
60076;SDS011;45950;45.208;20.374;2022-07-06T13:47:06;4.85;;;2.95;;
60076;SDS011;45950;45.208;20.374;2022-07-06T13:49:34;4.57;;;2.70;;
60076;SDS011;45950;45.208;20.374;2022-07-06T13:52:01;3.25;;;2.72;;
60076;SDS011;45950;45.208;20.374;2022-07-06T13:54:29;5.45;;;3.00;;
60076;SDS011;45950;45.208;20.374;2022-07-06T13:56:55;3.60;;;2.65;;
60076;SDS011;45950;45.208;20.374;2022-07-06T13:59:22;2.45;;;2.20;;
60076;SDS011;45950;45.208;20.374;2022-07-06T14:01:49;2.67;;;1.98;;
60076;SDS011;45950;45.208;20.374;2022-07-06T14:04:15;5.20;;;3.10;;
60076;SDS011;45950;45.208;20.374;2022-07-06T14:06:44;5.07;;;3.00;;
60076;SDS011;45950;45.208;20.374;2022-07-06T14:09:10;3.70;;;3.25;;
60076;SDS011;45950;45.208;20.374;2022-07-06T14:11:37;3.88;;;3.28;;
60076;SDS011;45950;45.208;20.374;2022-07-06T14:14:04;4.22;;;3.13;;
60076;SDS011;45950;45.208;20.374;2022-07-06T14:16:32;3.35;;;3.05;;
60076;SDS011;45950;45.208;20.374;2022-07-06T14:19:00;4.70;;;3.30;;
60076;SDS011;45950;45.208;20.374;2022-07-06T14:21:26;3.42;;;3.10;;
60076;SDS011;45950;45.208;20.374;2022-07-06T14:23:54;4.63;;;2.83;;
60076;SDS011;45950;45.208;20.374;2022-07-06T14:26:21;2.97;;;1.80;;
60076;SDS011;45950;45.208;20.374;2022-07-06T14:28:48;3.05;;;2.13;;
60076;SDS011;45950;45.208;20.374;2022-07-06T14:31:14;3.35;;;1.60;;
60076;SDS011;45950;45.208;20.374;2022-07-06T14:33:41;6.13;;;1.85;;
60076;SDS011;45950;45.208;20.374;2022-07-06T14:36:08;2.20;;;1.52;;
60076;SDS011;45950;45.208;20.374;2022-07-06T14:38:34;1.70;;;1.38;;
60076;SDS011;45950;45.208;20.374;2022-07-06T14:41:02;2.83;;;1.40;;
60076;SDS011;45950;45.208;20.374;2022-07-06T14:43:29;3.22;;;1.58;;
60076;SDS011;45950;45.208;20.374;2022-07-06T14:45:56;1.65;;;1.10;;
60076;SDS011;45950;45.208;20.374;2022-07-06T14:48:22;1.23;;;0.90;;
60076;SDS011;45950;45.208;20.374;2022-07-06T14:50:49;1.13;;;0.77;;
60076;SDS011;45950;45.208;20.374;2022-07-06T14:53:16;3.30;;;1.27;;
60076;SDS011;45950;45.208;20.374;2022-07-06T14:55:42;2.20;;;0.90;;